createdAt,value
2023-09-09T00:01:49.012Z,20.48
2023-09-09T00:04:18.363Z,19.68
2023-09-09T00:06:47.743Z,19.03
2023-09-09T00:09:16.964Z,19.43
2023-09-09T00:11:46.301Z,19.67
2023-09-09T00:14:15.699Z,19.28
2023-09-09T00:16:44.956Z,19.04
2023-09-09T00:19:14.362Z,19.87
2023-09-09T00:21:43.671Z,19.11
2023-09-09T00:24:12.879Z,19.01
2023-09-09T00:26:42.085Z,19.37
2023-09-09T00:29:11.398Z,19.19
2023-09-09T00:31:40.892Z,18.68
2023-09-09T00:34:10.185Z,18.49
2023-09-09T00:36:39.416Z,18.72
2023-09-09T00:39:09.540Z,18.85
2023-09-09T00:41:38.824Z,18.49
2023-09-09T00:44:09.844Z,18.19
2023-09-09T00:46:40.153Z,17.80
2023-09-09T00:49:09.794Z,16.97
2023-09-09T00:51:41.434Z,17.83
2023-09-09T00:54:11.593Z,17.39
2023-09-09T00:56:41.059Z,18.23
2023-09-09T00:59:12.914Z,17.90
2023-09-09T01:01:42.309Z,17.62
2023-09-09T01:04:11.738Z,18.34
2023-09-09T01:06:41.875Z,19.06
2023-09-09T01:09:11.083Z,19.73
2023-09-09T01:11:40.345Z,20.88
2023-09-09T01:14:09.926Z,20.79
2023-09-09T01:16:40.002Z,20.20
2023-09-09T01:19:13.297Z,20.85
2023-09-09T01:21:46.497Z,21.81
2023-09-09T01:24:17.008Z,22.62
2023-09-09T01:26:47.631Z,23.14
2023-09-09T01:29:17.250Z,22.94
2023-09-09T01:31:46.537Z,23.35
2023-09-09T01:34:15.845Z,22.53
2023-09-09T01:36:45.114Z,23.20
2023-09-09T01:39:14.352Z,24.40
2023-09-09T01:41:44.017Z,24.03
2023-09-09T01:44:13.305Z,25.33
2023-09-09T01:46:42.616Z,25.69
2023-09-09T01:49:11.929Z,27.19
2023-09-09T01:51:41.624Z,26.87
2023-09-09T01:54:10.871Z,26.07
2023-09-09T01:56:40.113Z,25.71
2023-09-09T01:59:09.400Z,26.00
2023-09-09T02:01:38.640Z,25.02
2023-09-09T02:04:08.111Z,23.85
2023-09-09T02:06:37.386Z,22.92
2023-09-09T02:09:06.654Z,22.88
2023-09-09T02:11:35.897Z,22.65
2023-09-09T02:14:05.337Z,23.00
2023-09-09T02:16:34.710Z,23.87
2023-09-09T02:19:04.747Z,24.23
2023-09-09T02:21:33.953Z,25.38
2023-09-09T02:24:04.042Z,26.84
2023-09-09T02:26:33.302Z,27.94
2023-09-09T02:29:02.506Z,28.69
2023-09-09T02:31:32.454Z,29.26
2023-09-09T02:34:01.870Z,29.16
2023-09-09T02:36:31.142Z,30.38
2023-09-09T02:39:00.472Z,31.42
2023-09-09T02:41:29.809Z,32.83
2023-09-09T02:43:59.082Z,35.27
2023-09-09T02:46:28.377Z,33.49
2023-09-09T02:48:57.723Z,34.36
2023-09-09T02:51:27.017Z,33.69
2023-09-09T02:53:56.320Z,34.57
2023-09-09T02:56:25.614Z,35.77
2023-09-09T02:58:54.877Z,36.34
2023-09-09T03:01:24.427Z,36.52
2023-09-09T03:03:54.092Z,37.53
2023-09-09T03:06:23.410Z,37.97
2023-09-09T03:08:52.667Z,39.50
2023-09-09T03:11:22.310Z,40.48
2023-09-09T03:13:51.809Z,42.91
2023-09-09T03:16:21.292Z,45.42
2023-09-09T03:18:50.873Z,44.27
2023-09-09T03:21:20.154Z,46.80
2023-09-09T03:23:49.401Z,46.02
2023-09-09T03:26:20.373Z,46.70
2023-09-09T03:28:49.657Z,46.99
2023-09-09T03:31:18.991Z,45.48
2023-09-09T03:33:48.327Z,45.77
2023-09-09T03:36:17.548Z,44.55
2023-09-09T03:38:46.758Z,44.52
2023-09-09T03:41:16.072Z,44.98
2023-09-09T03:43:45.481Z,44.49
2023-09-09T03:46:17.183Z,44.32
2023-09-09T03:48:47.605Z,44.98
2023-09-09T03:51:17.032Z,44.45
2023-09-09T03:53:46.778Z,43.78
2023-09-09T03:56:16.538Z,43.88
2023-09-09T03:58:46.004Z,43.68
2023-09-09T04:01:15.901Z,43.48
2023-09-09T04:03:45.695Z,43.67
2023-09-09T04:06:18.835Z,43.81
2023-09-09T04:08:49.056Z,44.17
2023-09-09T04:11:18.876Z,44.51
2023-09-09T04:13:48.204Z,43.18
2023-09-09T04:16:17.663Z,45.18
2023-09-09T04:18:47.503Z,44.14
2023-09-09T04:21:22.282Z,44.34
2023-09-09T04:23:51.645Z,43.71
2023-09-09T04:26:20.975Z,43.83
2023-09-09T04:28:50.325Z,42.90
2023-09-09T04:31:19.811Z,42.91
2023-09-09T04:33:50.036Z,42.52
2023-09-09T04:36:19.291Z,43.05
2023-09-09T04:38:48.586Z,43.15
2023-09-09T04:41:17.812Z,41.82
2023-09-09T04:43:47.442Z,44.79
2023-09-09T04:46:16.782Z,46.06
2023-09-09T04:48:46.274Z,45.67
2023-09-09T04:51:15.571Z,46.11
2023-09-09T04:53:44.855Z,44.92
2023-09-09T04:56:14.213Z,44.75
2023-09-09T04:58:43.559Z,44.60
2023-09-09T05:01:12.857Z,44.93
2023-09-09T05:03:42.348Z,43.58
2023-09-09T05:06:11.897Z,43.12
2023-09-09T05:08:41.184Z,44.21
2023-09-09T05:11:10.573Z,44.87
2023-09-09T05:13:40.468Z,44.93
2023-09-09T05:16:09.842Z,46.14
2023-09-09T05:18:39.143Z,47.19
2023-09-09T05:21:08.333Z,46.36
2023-09-09T05:23:37.750Z,44.86
2023-09-09T05:26:07.545Z,43.27
2023-09-09T05:28:36.947Z,43.12
2023-09-09T05:31:09.184Z,41.75
2023-09-09T05:33:39.130Z,41.64
2023-09-09T05:36:08.839Z,40.84
2023-09-09T05:38:38.350Z,41.78
2023-09-09T05:41:08.299Z,41.77
2023-09-09T05:43:38.114Z,43.41
2023-09-09T05:46:07.897Z,44.73
2023-09-09T05:48:37.849Z,45.69
2023-09-09T05:51:07.566Z,47.07
2023-09-09T05:53:37.369Z,51.94
2023-09-09T05:56:07.125Z,52.43
2023-09-09T05:58:36.847Z,52.45
2023-09-09T06:01:06.298Z,53.84
2023-09-09T06:03:37.709Z,59.94
2023-09-09T06:06:08.083Z,66.67
2023-09-09T06:08:38.278Z,66.50
2023-09-09T06:11:07.566Z,67.62
2023-09-09T06:13:37.059Z,68.28
2023-09-09T06:16:06.746Z,68.52
2023-09-09T06:18:36.125Z,67.47
2023-09-09T06:21:05.779Z,67.85
2023-09-09T06:23:36.754Z,63.60
2023-09-09T06:26:07.169Z,63.24
2023-09-09T06:28:36.908Z,62.92
2023-09-09T06:31:06.221Z,61.17
2023-09-09T06:33:36.159Z,61.52
2023-09-09T06:36:08.847Z,59.92
2023-09-09T06:38:38.321Z,57.50
2023-09-09T06:41:07.648Z,57.78
2023-09-09T06:43:37.026Z,56.16
2023-09-09T06:46:06.571Z,54.92
2023-09-09T06:48:36.020Z,55.64
2023-09-09T06:51:05.323Z,55.33
2023-09-09T06:53:34.719Z,57.89
2023-09-09T06:56:04.115Z,57.50
2023-09-09T06:58:33.766Z,57.63
2023-09-09T07:01:04.056Z,58.23
2023-09-09T07:03:33.398Z,57.94
2023-09-09T07:06:02.934Z,56.28
2023-09-09T07:08:32.316Z,58.98
2023-09-09T07:11:01.654Z,60.69
2023-09-09T07:13:30.866Z,61.26
2023-09-09T07:16:00.153Z,62.05
2023-09-09T07:18:29.456Z,61.45
2023-09-09T07:21:02.601Z,62.86
2023-09-09T07:23:31.801Z,63.51
2023-09-09T07:26:02.848Z,64.93
2023-09-09T07:28:33.898Z,64.68
2023-09-09T07:31:07.328Z,65.07
2023-09-09T07:33:37.698Z,66.78
2023-09-09T07:36:07.234Z,65.50
2023-09-09T07:38:37.156Z,65.47
2023-09-09T07:41:06.543Z,69.31
2023-09-09T07:43:36.393Z,70.26
2023-09-09T07:46:05.946Z,66.30
2023-09-09T07:48:35.222Z,68.78
2023-09-09T07:51:04.446Z,69.02
2023-09-09T07:53:33.693Z,70.20
2023-09-09T07:56:02.994Z,69.34
2023-09-09T07:58:32.256Z,70.01
2023-09-09T08:01:05.365Z,70.54
2023-09-09T08:03:34.975Z,71.49
2023-09-09T08:06:07.708Z,69.92
2023-09-09T08:08:37.867Z,72.40
2023-09-09T08:11:07.943Z,72.20
2023-09-09T08:13:37.358Z,72.26
2023-09-09T08:16:07.163Z,70.58
2023-09-09T08:18:36.600Z,71.83
2023-09-09T08:21:05.848Z,71.96
2023-09-09T08:23:35.920Z,70.11
2023-09-09T08:26:05.389Z,70.00
2023-09-09T08:28:34.909Z,67.63
2023-09-09T08:31:04.238Z,65.64
2023-09-09T08:33:33.631Z,63.59
2023-09-09T08:36:04.536Z,63.15
2023-09-09T08:38:33.805Z,59.38
2023-09-09T08:41:22.820Z,58.24
2023-09-09T08:44:05.584Z,53.88
2023-09-09T08:46:35.478Z,52.78
2023-09-09T08:49:06.655Z,51.61
2023-09-09T08:51:48.998Z,50.36
2023-09-09T08:54:19.141Z,42.27
2023-09-09T08:56:49.820Z,41.95
2023-09-09T08:59:20.063Z,41.98
2023-09-09T09:01:51.348Z,37.85
2023-09-09T09:04:21.531Z,37.21
2023-09-09T09:06:51.224Z,37.88
2023-09-09T09:09:20.946Z,39.76
2023-09-09T09:11:50.187Z,34.46
2023-09-09T09:14:19.399Z,27.88
2023-09-09T09:16:48.948Z,26.14
2023-09-09T09:19:28.210Z,22.97
2023-09-09T09:21:58.989Z,24.79
2023-09-09T09:24:29.780Z,24.39
2023-09-09T09:27:00.178Z,24.61
2023-09-09T09:29:43.757Z,23.01
2023-09-09T09:32:13.518Z,26.74
2023-09-09T09:34:42.749Z,26.29
2023-09-09T09:37:16.463Z,28.21
2023-09-09T09:39:48.209Z,27.14
2023-09-09T09:42:18.946Z,26.37
2023-09-09T09:44:48.208Z,24.65
2023-09-09T09:47:17.478Z,21.90
2023-09-09T09:49:49.707Z,22.50
2023-09-09T09:52:28.019Z,23.63
2023-09-09T09:54:58.267Z,23.34
2023-09-09T09:57:28.683Z,23.12
2023-09-09T09:59:59.045Z,19.82
2023-09-09T10:02:32.188Z,21.07
2023-09-09T10:05:05.038Z,20.25
2023-09-09T10:07:38.677Z,18.17
2023-09-09T10:10:15.349Z,15.69
2023-09-09T10:13:04.132Z,16.69
2023-09-09T10:15:36.352Z,16.71
2023-09-09T10:18:07.285Z,16.31
2023-09-09T10:20:38.004Z,15.30
2023-09-09T10:23:08.151Z,15.43
2023-09-09T10:25:40.029Z,16.39
2023-09-09T10:28:09.637Z,16.51
2023-09-09T10:30:39.910Z,15.58
2023-09-09T10:33:12.813Z,16.01
2023-09-09T10:35:47.597Z,16.59
2023-09-09T10:38:18.077Z,14.45
2023-09-09T10:40:49.980Z,13.39
2023-09-09T10:43:19.344Z,14.28
2023-09-09T10:45:48.893Z,12.77
2023-09-09T10:48:22.594Z,13.76
2023-09-09T10:50:54.374Z,15.22
2023-09-09T10:53:30.947Z,14.82
2023-09-09T10:56:23.122Z,16.51
2023-09-09T10:58:53.672Z,14.71
2023-09-09T11:01:29.545Z,13.98
2023-09-09T11:04:00.532Z,14.88
2023-09-09T11:06:32.216Z,15.25
2023-09-09T11:09:04.079Z,14.46
2023-09-09T11:11:39.106Z,13.35
2023-09-09T11:14:10.121Z,12.77
2023-09-09T11:16:41.972Z,12.79
2023-09-09T11:19:17.909Z,13.04
2023-09-09T11:21:52.371Z,12.95
2023-09-09T11:24:22.781Z,14.38
2023-09-09T11:26:53.261Z,11.74
2023-09-09T11:29:35.563Z,11.17
2023-09-09T11:32:11.262Z,12.02
2023-09-09T11:34:40.867Z,14.05
2023-09-09T11:37:12.522Z,11.99
2023-09-09T11:39:42.796Z,11.06
2023-09-09T11:42:11.971Z,10.53
2023-09-09T11:44:45.154Z,11.47
2023-09-09T11:47:16.058Z,12.27
2023-09-09T11:49:47.227Z,12.11
2023-09-09T11:52:22.856Z,12.67
2023-09-09T11:54:52.247Z,12.16
2023-09-09T11:57:21.482Z,11.90
2023-09-09T11:59:55.149Z,11.52
2023-09-09T12:02:28.046Z,13.24
2023-09-09T12:05:01.493Z,12.98
2023-09-09T12:07:39.813Z,12.66
2023-09-09T12:10:16.215Z,13.08
2023-09-09T12:12:47.595Z,12.39
2023-09-09T12:15:18.276Z,11.89
2023-09-09T12:17:47.691Z,12.18
2023-09-09T12:20:17.314Z,12.22
2023-09-09T12:22:49.376Z,11.18
2023-09-09T12:25:37.867Z,11.98
2023-09-09T12:28:18.693Z,11.92
2023-09-09T12:30:47.958Z,12.16
2023-09-09T12:33:21.221Z,12.51
2023-09-09T12:35:53.522Z,14.44
2023-09-09T12:38:23.469Z,12.83
2023-09-09T12:40:54.970Z,13.29
2023-09-09T12:43:28.675Z,14.22
2023-09-09T12:46:05.435Z,13.32
2023-09-09T12:48:52.404Z,13.24
2023-09-09T12:51:22.468Z,12.01
2023-09-09T12:53:52.803Z,13.57
2023-09-09T12:56:22.294Z,12.61
2023-09-09T12:58:51.581Z,12.66
2023-09-09T13:01:20.856Z,12.38
2023-09-09T13:03:50.079Z,12.05
2023-09-09T13:06:19.334Z,12.74
2023-09-09T13:08:48.573Z,12.49
2023-09-09T13:11:17.827Z,12.94
2023-09-09T13:13:47.057Z,14.70
2023-09-09T13:16:16.347Z,14.93
2023-09-09T13:18:45.629Z,13.03
2023-09-09T13:21:14.843Z,12.33
2023-09-09T13:23:44.066Z,12.45
2023-09-09T13:26:13.318Z,14.46
2023-09-09T13:28:42.630Z,12.79
2023-09-09T13:31:11.972Z,12.85
2023-09-09T13:33:41.644Z,13.40
2023-09-09T13:36:11.177Z,14.04
2023-09-09T13:38:40.519Z,13.48
2023-09-09T13:41:09.720Z,12.69
2023-09-09T13:43:41.152Z,12.77
2023-09-09T13:46:12.092Z,12.28
2023-09-09T13:48:41.783Z,11.98
2023-09-09T13:51:12.573Z,11.68
2023-09-09T13:53:41.835Z,11.83
2023-09-09T13:56:11.149Z,12.34
2023-09-09T13:58:40.441Z,11.93
2023-09-09T14:01:09.669Z,11.59
2023-09-09T14:03:39.022Z,11.94
2023-09-09T14:06:09.943Z,11.88
2023-09-09T14:08:39.394Z,11.23
2023-09-09T14:11:08.889Z,10.96
2023-09-09T14:13:38.105Z,11.44
2023-09-09T14:16:07.356Z,11.57
2023-09-09T14:18:39.085Z,11.28
2023-09-09T14:21:08.744Z,11.44
2023-09-09T14:23:38.238Z,11.37
2023-09-09T14:26:07.490Z,11.43
2023-09-09T14:28:36.973Z,10.96
2023-09-09T14:31:06.867Z,10.57
2023-09-09T14:33:36.095Z,10.53
2023-09-09T14:36:05.423Z,10.39
2023-09-09T14:38:34.739Z,10.18
2023-09-09T14:41:04.144Z,10.31
2023-09-09T14:43:33.701Z,10.82
2023-09-09T14:46:02.898Z,10.50
2023-09-09T14:48:39.751Z,10.54
2023-09-09T14:51:09.234Z,10.33
2023-09-09T14:53:38.455Z,10.74
2023-09-09T14:56:07.611Z,10.69
2023-09-09T14:58:37.009Z,11.09
2023-09-09T15:01:06.432Z,10.85
2023-09-09T15:03:35.665Z,10.95
2023-09-09T15:06:04.842Z,11.31
2023-09-09T15:08:33.994Z,11.00
2023-09-09T15:11:03.184Z,11.82
2023-09-09T15:13:32.416Z,11.61
2023-09-09T15:16:06.786Z,11.18
2023-09-09T15:18:37.894Z,11.54
2023-09-09T15:21:07.465Z,11.43
2023-09-09T15:23:37.109Z,12.31
2023-09-09T15:26:06.579Z,12.04
2023-09-09T15:28:35.927Z,11.36
2023-09-09T15:31:06.855Z,11.59
2023-09-09T15:33:36.090Z,11.14
2023-09-09T15:36:05.318Z,10.50
2023-09-09T15:38:37.108Z,10.37
2023-09-09T15:41:07.012Z,10.69
2023-09-09T15:43:38.904Z,11.72
2023-09-09T15:46:08.171Z,10.99
2023-09-09T15:48:37.665Z,10.47
2023-09-09T15:51:07.792Z,11.06
2023-09-09T15:53:37.038Z,11.00
2023-09-09T15:56:12.946Z,10.54
2023-09-09T15:58:42.959Z,10.71
2023-09-09T16:01:12.289Z,11.82
2023-09-09T16:03:43.231Z,12.00
2023-09-09T16:06:12.577Z,11.76
2023-09-09T16:08:42.563Z,12.14
2023-09-09T16:11:11.983Z,11.65
2023-09-09T16:13:41.331Z,12.80
2023-09-09T16:16:12.406Z,12.18
2023-09-09T16:18:43.434Z,13.52
2023-09-09T16:21:12.664Z,13.22
2023-09-09T16:23:41.894Z,13.06
2023-09-09T16:26:11.149Z,13.78
2023-09-09T16:28:41.611Z,12.36
2023-09-09T16:31:11.131Z,11.05
2023-09-09T16:33:40.480Z,14.29
2023-09-09T16:36:09.773Z,13.81
2023-09-09T16:38:39.330Z,11.92
2023-09-09T16:41:08.751Z,11.81
2023-09-09T16:43:39.393Z,11.36
2023-09-09T16:46:08.742Z,11.86
2023-09-09T16:48:39.037Z,11.45
2023-09-09T16:51:08.960Z,11.97
2023-09-09T16:53:39.554Z,12.67
2023-09-09T16:56:08.854Z,12.02
2023-09-09T16:58:38.111Z,12.97
2023-09-09T17:01:07.341Z,12.90
2023-09-09T17:03:36.871Z,12.27
2023-09-09T17:06:06.311Z,12.33
2023-09-09T17:08:35.566Z,12.65
2023-09-09T17:11:07.543Z,11.44
2023-09-09T17:13:37.082Z,11.19
2023-09-09T17:16:06.619Z,11.65
2023-09-09T17:18:42.516Z,11.52
2023-09-09T17:21:12.880Z,11.34
2023-09-09T17:23:42.215Z,11.41
2023-09-09T17:26:11.619Z,11.08
2023-09-09T17:28:40.892Z,11.08
2023-09-09T17:31:10.271Z,11.46
2023-09-09T17:33:44.516Z,11.48
2023-09-09T17:36:14.040Z,11.70
2023-09-09T17:38:43.272Z,12.09
2023-09-09T17:41:12.483Z,12.45
2023-09-09T17:43:43.400Z,12.03
2023-09-09T17:46:15.098Z,12.12
2023-09-09T17:48:46.746Z,12.30
2023-09-09T17:51:15.913Z,12.55
2023-09-09T17:53:45.073Z,12.21
2023-09-09T17:56:14.281Z,13.32
2023-09-09T17:58:45.481Z,12.48
2023-09-09T18:01:14.794Z,12.30
2023-09-09T18:03:44.143Z,12.68
2023-09-09T18:06:13.400Z,12.79
2023-09-09T18:08:42.636Z,12.63
2023-09-09T18:11:11.877Z,12.61
2023-09-09T18:13:41.290Z,13.35
2023-09-09T18:16:10.531Z,13.17
2023-09-09T18:18:40.159Z,13.28
2023-09-09T18:21:13.184Z,13.56
2023-09-09T18:23:42.566Z,13.87
2023-09-09T18:26:11.900Z,13.88
2023-09-09T18:28:41.199Z,14.39
2023-09-09T18:31:11.268Z,14.81
2023-09-09T18:33:40.767Z,15.66
2023-09-09T18:36:10.144Z,15.61
2023-09-09T18:38:41.364Z,15.80
2023-09-09T18:41:11.523Z,15.63
2023-09-09T18:43:40.818Z,15.56
2023-09-09T18:46:10.186Z,15.04
2023-09-09T18:48:39.572Z,15.98
2023-09-09T18:51:08.975Z,15.87
2023-09-09T18:53:38.201Z,16.54
2023-09-09T18:56:07.438Z,16.16
2023-09-09T18:58:36.908Z,16.20
2023-09-09T19:01:06.477Z,16.39
2023-09-09T19:03:35.854Z,16.16
2023-09-09T19:06:05.387Z,17.10
2023-09-09T19:08:35.047Z,18.79
2023-09-09T19:11:06.848Z,17.74
2023-09-09T19:13:36.097Z,17.74
2023-09-09T19:16:05.407Z,17.24
2023-09-09T19:18:34.611Z,19.36
2023-09-09T19:21:03.839Z,21.17
2023-09-09T19:23:33.117Z,20.20
2023-09-09T19:26:02.451Z,19.69
2023-09-09T19:28:31.692Z,20.25
2023-09-09T19:31:00.918Z,21.81
2023-09-09T19:33:30.181Z,19.59
2023-09-09T19:35:59.460Z,18.37
2023-09-09T19:38:28.749Z,19.92
2023-09-09T19:40:57.975Z,19.95
2023-09-09T19:43:27.253Z,19.30
2023-09-09T19:45:56.588Z,19.84
2023-09-09T19:48:25.860Z,20.30
2023-09-09T19:50:56.450Z,20.65
2023-09-09T19:53:25.678Z,20.94
2023-09-09T19:55:55.033Z,20.73
2023-09-09T19:58:24.264Z,21.44
2023-09-09T20:00:53.521Z,21.40
2023-09-09T20:03:24.053Z,21.88
2023-09-09T20:05:53.645Z,22.27
2023-09-09T20:08:22.916Z,23.99
2023-09-09T20:10:55.039Z,23.66
2023-09-09T20:13:24.892Z,23.10
2023-09-09T20:15:54.883Z,24.01
2023-09-09T20:18:24.553Z,24.34
2023-09-09T20:20:54.307Z,23.94
2023-09-09T20:23:23.607Z,24.19
2023-09-09T20:25:52.861Z,23.93
2023-09-09T20:28:22.327Z,24.65
2023-09-09T20:30:51.654Z,25.02
2023-09-09T20:33:21.002Z,23.91
2023-09-09T20:35:51.575Z,23.54
2023-09-09T20:38:20.925Z,23.62
2023-09-09T20:40:50.567Z,22.89
2023-09-09T20:43:20.639Z,22.61
2023-09-09T20:45:50.327Z,22.33
2023-09-09T20:48:19.677Z,23.08
2023-09-09T20:50:49.937Z,23.21
2023-09-09T20:53:19.243Z,23.46
2023-09-09T20:55:48.507Z,22.47
2023-09-09T20:58:18.951Z,22.98
2023-09-09T21:00:48.272Z,22.26
2023-09-09T21:03:17.534Z,23.25
2023-09-09T21:05:46.873Z,23.28
2023-09-09T21:08:16.070Z,24.00
2023-09-09T21:10:45.484Z,23.79
2023-09-09T21:13:14.777Z,23.85
2023-09-09T21:15:44.074Z,24.84
2023-09-09T21:18:13.293Z,24.03
2023-09-09T21:20:42.546Z,24.88
2023-09-09T21:23:12.767Z,25.20
2023-09-09T21:25:42.179Z,23.87
2023-09-09T21:28:11.489Z,23.95
2023-09-09T21:30:42.520Z,25.55
2023-09-09T21:33:11.937Z,24.91
2023-09-09T21:35:41.168Z,24.89
2023-09-09T21:38:10.345Z,25.25
2023-09-09T21:40:39.612Z,26.40
2023-09-09T21:43:08.912Z,27.80
2023-09-09T21:45:38.181Z,28.59
2023-09-09T21:48:09.244Z,30.50
2023-09-09T21:50:38.537Z,30.49
2023-09-09T21:53:07.864Z,30.16
2023-09-09T21:55:37.219Z,29.88
2023-09-09T21:58:06.541Z,29.56
2023-09-09T22:00:35.821Z,29.73
2023-09-09T22:03:05.251Z,29.55
2023-09-09T22:05:34.544Z,29.00
2023-09-09T22:08:03.861Z,29.59
2023-09-09T22:10:33.293Z,29.31
2023-09-09T22:13:02.544Z,27.78
2023-09-09T22:15:31.792Z,29.24
2023-09-09T22:18:01.145Z,28.67
2023-09-09T22:20:30.351Z,28.46
2023-09-09T22:22:59.700Z,28.56
2023-09-09T22:25:29.058Z,28.87
2023-09-09T22:27:58.298Z,28.44
2023-09-09T22:30:30.219Z,28.13
2023-09-09T22:32:59.668Z,28.36
2023-09-09T22:35:30.662Z,28.22
2023-09-09T22:37:59.987Z,27.87
2023-09-09T22:40:29.233Z,27.21
2023-09-09T22:42:58.575Z,27.91
2023-09-09T22:45:27.782Z,27.22
2023-09-09T22:47:57.929Z,26.67
2023-09-09T22:50:27.165Z,26.77
2023-09-09T22:52:56.475Z,26.37
2023-09-09T22:55:26.048Z,26.33
2023-09-09T22:57:55.738Z,26.61
2023-09-09T23:00:25.056Z,27.10
2023-09-09T23:02:54.447Z,27.35
2023-09-09T23:05:23.906Z,26.88
2023-09-09T23:07:53.405Z,26.12
2023-09-09T23:10:22.755Z,26.33
2023-09-09T23:12:52.040Z,26.11
2023-09-09T23:15:21.302Z,26.01
2023-09-09T23:17:51.355Z,25.85
2023-09-09T23:20:21.126Z,26.26
2023-09-09T23:22:50.361Z,25.70
2023-09-09T23:25:19.570Z,25.24
2023-09-09T23:27:48.757Z,26.88
2023-09-09T23:30:17.980Z,27.14
2023-09-09T23:32:47.386Z,26.92
2023-09-09T23:35:16.809Z,26.87
2023-09-09T23:37:46.254Z,27.51
2023-09-09T23:40:15.691Z,27.48
2023-09-09T23:42:44.896Z,27.39
2023-09-09T23:45:14.260Z,27.35
2023-09-09T23:47:43.550Z,28.82
2023-09-09T23:50:12.804Z,27.25
2023-09-09T23:52:42.015Z,28.62
2023-09-09T23:55:11.432Z,28.69
2023-09-09T23:57:40.634Z,28.67
